sensor_id;sensor_type;location;lat;lon;timestamp;pressure;altitude;pressure_sealevel;temperature;humidity
16331;BME280;8275;48.206;16.340;2023-02-28T00:01:35;100249.47;;;6.63;34.56
16331;BME280;8275;48.206;16.340;2023-02-28T00:04:04;100248.84;;;6.61;34.64
16331;BME280;8275;48.206;16.340;2023-02-28T00:06:32;100251.16;;;6.58;34.72
16331;BME280;8275;48.206;16.340;2023-02-28T00:09:01;100249.69;;;6.55;35.38
16331;BME280;8275;48.206;16.340;2023-02-28T00:11:29;100250.94;;;6.53;35.47
16331;BME280;8275;48.206;16.340;2023-02-28T00:13:59;100252.19;;;6.50;35.39
16331;BME280;8275;48.206;16.340;2023-02-28T00:16:28;100248.81;;;6.48;34.90
16331;BME280;8275;48.206;16.340;2023-02-28T00:18:57;100250.91;;;6.46;34.83
16331;BME280;8275;48.206;16.340;2023-02-28T00:21:26;100258.44;;;6.44;35.30
16331;BME280;8275;48.206;16.340;2023-02-28T00:23:55;100253.00;;;6.44;35.50
16331;BME280;8275;48.206;16.340;2023-02-28T00:26:23;100251.31;;;6.43;35.68
16331;BME280;8275;48.206;16.340;2023-02-28T00:28:52;100254.03;;;6.43;34.86
16331;BME280;8275;48.206;16.340;2023-02-28T00:31:20;100254.25;;;6.42;34.84
16331;BME280;8275;48.206;16.340;2023-02-28T00:33:49;100255.72;;;6.44;35.60
16331;BME280;8275;48.206;16.340;2023-02-28T00:36:20;100257.41;;;6.45;35.73
16331;BME280;8275;48.206;16.340;2023-02-28T00:38:48;100258.44;;;6.44;35.46
16331;BME280;8275;48.206;16.340;2023-02-28T00:41:17;100254.66;;;6.45;35.42
16331;BME280;8275;48.206;16.340;2023-02-28T00:43:45;100260.13;;;6.45;35.32
16331;BME280;8275;48.206;16.340;2023-02-28T00:46:14;100253.63;;;6.46;35.03
16331;BME280;8275;48.206;16.340;2023-02-28T00:48:42;100255.50;;;6.46;35.12
16331;BME280;8275;48.206;16.340;2023-02-28T00:51:11;100264.31;;;6.48;35.51
16331;BME280;8275;48.206;16.340;2023-02-28T00:53:41;100262.44;;;6.48;35.84
16331;BME280;8275;48.206;16.340;2023-02-28T00:56:09;100258.69;;;6.49;35.10
16331;BME280;8275;48.206;16.340;2023-02-28T00:58:38;100251.34;;;6.50;35.00
16331;BME280;8275;48.206;16.340;2023-02-28T01:01:06;100251.34;;;6.50;35.49
16331;BME280;8275;48.206;16.340;2023-02-28T01:03:35;100254.91;;;6.50;35.46
16331;BME280;8275;48.206;16.340;2023-02-28T01:06:04;100253.25;;;6.49;35.95
16331;BME280;8275;48.206;16.340;2023-02-28T01:08:33;100251.34;;;6.50;34.75
16331;BME280;8275;48.206;16.340;2023-02-28T01:11:09;100252.56;;;6.47;35.45
16331;BME280;8275;48.206;16.340;2023-02-28T01:13:38;100247.13;;;6.47;35.53
16331;BME280;8275;48.206;16.340;2023-02-28T01:16:07;100253.41;;;6.48;35.07
16331;BME280;8275;48.206;16.340;2023-02-28T01:18:36;100258.03;;;6.47;35.51
16331;BME280;8275;48.206;16.340;2023-02-28T01:21:06;100256.16;;;6.48;35.05
16331;BME280;8275;48.206;16.340;2023-02-28T01:23:35;100258.03;;;6.47;35.31
16331;BME280;8275;48.206;16.340;2023-02-28T01:26:09;100257.22;;;6.47;35.27
16331;BME280;8275;48.206;16.340;2023-02-28T01:28:38;100265.38;;;6.47;35.75
16331;BME280;8275;48.206;16.340;2023-02-28T01:31:07;100254.50;;;6.47;34.88
16331;BME280;8275;48.206;16.340;2023-02-28T01:33:37;100260.34;;;6.50;35.20
16331;BME280;8275;48.206;16.340;2023-02-28T01:36:09;100263.91;;;6.51;35.41
16331;BME280;8275;48.206;16.340;2023-02-28T01:38:39;100264.53;;;6.53;35.31
16331;BME280;8275;48.206;16.340;2023-02-28T01:41:17;100259.09;;;6.53;35.41
16331;BME280;8275;48.206;16.340;2023-02-28T01:43:59;100256.78;;;6.56;35.24
16331;BME280;8275;48.206;16.340;2023-02-28T01:46:31;100260.78;;;6.60;35.19
16331;BME280;8275;48.206;16.340;2023-02-28T01:49:07;100264.13;;;6.62;35.07
16331;BME280;8275;48.206;16.340;2023-02-28T01:51:41;100263.94;;;6.64;35.01
16331;BME280;8275;48.206;16.340;2023-02-28T01:54:16;100259.94;;;6.66;35.23
16331;BME280;8275;48.206;16.340;2023-02-28T01:56:53;100261.44;;;6.69;35.59
16331;BME280;8275;48.206;16.340;2023-02-28T01:59:29;100270.00;;;6.72;35.47
16331;BME280;8275;48.206;16.340;2023-02-28T02:02:01;100265.84;;;6.76;35.00
16331;BME280;8275;48.206;16.340;2023-02-28T02:04:37;100263.75;;;6.78;35.01
16331;BME280;8275;48.206;16.340;2023-02-28T02:07:07;100270.22;;;6.84;35.44
16331;BME280;8275;48.206;16.340;2023-02-28T02:09:37;100266.06;;;6.88;35.22
16331;BME280;8275;48.206;16.340;2023-02-28T02:12:18;100267.72;;;6.89;35.38
16331;BME280;8275;48.206;16.340;2023-02-28T02:15:02;100256.44;;;6.92;35.31
16331;BME280;8275;48.206;16.340;2023-02-28T02:17:36;100265.00;;;6.95;35.31
16331;BME280;8275;48.206;16.340;2023-02-28T02:24:19;100264.19;;;6.95;34.99
16331;BME280;8275;48.206;16.340;2023-02-28T02:27:27;100261.25;;;6.96;35.27
16331;BME280;8275;48.206;16.340;2023-02-28T02:30:51;100267.09;;;6.93;35.10
16331;BME280;8275;48.206;16.340;2023-02-28T02:36:26;100264.16;;;6.88;35.42
16331;BME280;8275;48.206;16.340;2023-02-28T02:39:04;100262.91;;;6.84;35.09
16331;BME280;8275;48.206;16.340;2023-02-28T02:41:39;100266.06;;;6.81;34.93
16331;BME280;8275;48.206;16.340;2023-02-28T02:44:13;100270.22;;;6.77;34.92
16331;BME280;8275;48.206;16.340;2023-02-28T02:46:49;100265.63;;;6.71;34.75
16331;BME280;8275;48.206;16.340;2023-02-28T02:49:24;100265.41;;;6.66;35.01
16331;BME280;8275;48.206;16.340;2023-02-28T02:51:57;100264.13;;;6.62;35.33
16331;BME280;8275;48.206;16.340;2023-02-28T02:54:31;100262.03;;;6.58;35.81
16331;BME280;8275;48.206;16.340;2023-02-28T02:57:05;100260.78;;;6.54;35.49
16331;BME280;8275;48.206;16.340;2023-02-28T02:59:36;100264.75;;;6.51;35.48
16331;BME280;8275;48.206;16.340;2023-02-28T03:02:08;100263.28;;;6.49;35.49
16331;BME280;8275;48.206;16.340;2023-02-28T03:04:43;100263.69;;;6.46;35.51
16331;BME280;8275;48.206;16.340;2023-02-28T03:07:15;100271.00;;;6.45;35.33
16331;BME280;8275;48.206;16.340;2023-02-28T03:09:51;100274.97;;;6.43;35.07
16331;BME280;8275;48.206;16.340;2023-02-28T03:12:21;100268.91;;;6.41;35.20
16331;BME280;8275;48.206;16.340;2023-02-28T03:14:58;100262.19;;;6.36;35.32
16331;BME280;8275;48.206;16.340;2023-02-28T03:17:50;100261.34;;;6.36;35.42
16331;BME280;8275;48.206;16.340;2023-02-28T03:20:35;100262.59;;;6.33;35.17
16331;BME280;8275;48.206;16.340;2023-02-28T03:23:16;100263.84;;;6.31;35.46
16331;BME280;8275;48.206;16.340;2023-02-28T03:25:56;100263.44;;;6.27;35.36
16331;BME280;8275;48.206;16.340;2023-02-28T03:28:32;100263.81;;;6.24;35.94
16331;BME280;8275;48.206;16.340;2023-02-28T03:31:09;100257.75;;;6.22;36.17
16331;BME280;8275;48.206;16.340;2023-02-28T03:33:45;100257.34;;;6.19;35.53
16331;BME280;8275;48.206;16.340;2023-02-28T03:36:25;100255.84;;;6.16;35.76
16331;BME280;8275;48.206;16.340;2023-02-28T03:38:59;100260.66;;;6.14;35.83
16331;BME280;8275;48.206;16.340;2023-02-28T03:41:35;100252.06;;;6.11;35.65
16331;BME280;8275;48.206;16.340;2023-02-28T03:44:11;100257.09;;;6.07;36.03
16331;BME280;8275;48.206;16.340;2023-02-28T03:46:47;100259.16;;;6.05;35.50
16331;BME280;8275;48.206;16.340;2023-02-28T03:49:20;100256.63;;;6.04;36.06
16331;BME280;8275;48.206;16.340;2023-02-28T03:51:52;100261.22;;;6.03;35.51
16331;BME280;8275;48.206;16.340;2023-02-28T03:54:27;100261.44;;;6.02;36.30
16331;BME280;8275;48.206;16.340;2023-02-28T03:57:03;100255.16;;;6.01;35.74
16331;BME280;8275;48.206;16.340;2023-02-28T03:59:37;100256.22;;;6.00;36.17
16331;BME280;8275;48.206;16.340;2023-02-28T04:02:08;100255.16;;;6.01;35.98
16331;BME280;8275;48.206;16.340;2023-02-28T04:04:36;100261.44;;;6.02;35.98
16331;BME280;8275;48.206;16.340;2023-02-28T04:07:09;100262.06;;;6.04;35.90
16331;BME280;8275;48.206;16.340;2023-02-28T04:09:41;100259.81;;;6.07;36.25
16331;BME280;8275;48.206;16.340;2023-02-28T04:12:09;100259.19;;;6.12;35.69
16331;BME280;8275;48.206;16.340;2023-02-28T04:14:38;100259.44;;;6.17;36.24
16331;BME280;8275;48.206;16.340;2023-02-28T04:17:06;100256.09;;;6.21;36.44
16331;BME280;8275;48.206;16.340;2023-02-28T04:19:35;100261.72;;;6.26;36.47
16331;BME280;8275;48.206;16.340;2023-02-28T04:22:04;100259.47;;;6.30;36.60
16331;BME280;8275;48.206;16.340;2023-02-28T04:24:32;100268.66;;;6.35;36.42
16331;BME280;8275;48.206;16.340;2023-02-28T04:27:02;100266.59;;;6.38;36.60
16331;BME280;8275;48.206;16.340;2023-02-28T04:29:32;100267.25;;;6.40;36.90
16331;BME280;8275;48.206;16.340;2023-02-28T04:32:01;100274.56;;;6.39;35.62
16331;BME280;8275;48.206;16.340;2023-02-28T04:34:32;100271.19;;;6.37;35.71
16331;BME280;8275;48.206;16.340;2023-02-28T04:37:00;100277.50;;;6.38;36.84
16331;BME280;8275;48.206;16.340;2023-02-28T04:39:40;100264.06;;;6.36;36.19
16331;BME280;8275;48.206;16.340;2023-02-28T04:42:12;100272.22;;;6.36;36.09
16331;BME280;8275;48.206;16.340;2023-02-28T04:44:40;100272.22;;;6.36;36.51
16331;BME280;8275;48.206;16.340;2023-02-28T04:47:09;100268.47;;;6.37;36.52
16331;BME280;8275;48.206;16.340;2023-02-28T04:49:38;100269.31;;;6.38;36.20
16331;BME280;8275;48.206;16.340;2023-02-28T04:52:08;100268.47;;;6.37;36.20
16331;BME280;8275;48.206;16.340;2023-02-28T04:54:37;100266.78;;;6.36;36.63
16331;BME280;8275;48.206;16.340;2023-02-28T04:57:06;100265.75;;;6.37;35.95
16331;BME280;8275;48.206;16.340;2023-02-28T04:59:36;100270.34;;;6.36;36.65
16331;BME280;8275;48.206;16.340;2023-02-28T05:02:05;100268.47;;;6.37;36.22
16331;BME280;8275;48.206;16.340;2023-02-28T05:04:35;100266.16;;;6.34;36.25
16331;BME280;8275;48.206;16.340;2023-02-28T05:07:04;100273.06;;;6.30;36.29
16331;BME280;8275;48.206;16.340;2023-02-28T05:09:32;100270.75;;;6.27;36.99
16331;BME280;8275;48.206;16.340;2023-02-28T05:12:01;100273.84;;;6.24;36.25
16331;BME280;8275;48.206;16.340;2023-02-28T05:14:30;100277.00;;;6.21;36.01
16331;BME280;8275;48.206;16.340;2023-02-28T05:17:00;100272.59;;;6.20;36.16
16331;BME280;8275;48.206;16.340;2023-02-28T05:19:28;100273.03;;;6.17;36.62
16331;BME280;8275;48.206;16.340;2023-02-28T05:21:57;100271.34;;;6.16;36.16
16331;BME280;8275;48.206;16.340;2023-02-28T05:24:25;100270.06;;;6.12;37.11
16331;BME280;8275;48.206;16.340;2023-02-28T05:26:55;100270.47;;;6.09;37.29
16331;BME280;8275;48.206;16.340;2023-02-28T05:29:23;100267.34;;;6.05;36.66
16331;BME280;8275;48.206;16.340;2023-02-28T05:31:51;100269.59;;;6.02;37.21
16331;BME280;8275;48.206;16.340;2023-02-28T05:34:22;100275.44;;;5.99;37.07
16331;BME280;8275;48.206;16.340;2023-02-28T05:36:50;100275.88;;;5.96;36.99
16331;BME280;8275;48.206;16.340;2023-02-28T05:39:18;100283.56;;;5.92;36.57
16331;BME280;8275;48.206;16.340;2023-02-28T05:41:47;100291.31;;;5.89;36.92
16331;BME280;8275;48.206;16.340;2023-02-28T05:44:15;100297.97;;;5.86;36.66
16331;BME280;8275;48.206;16.340;2023-02-28T05:46:44;100301.06;;;5.83;37.42
16331;BME280;8275;48.206;16.340;2023-02-28T05:49:12;100304.19;;;5.80;37.37
16331;BME280;8275;48.206;16.340;2023-02-28T05:51:42;100300.81;;;5.78;37.00
16331;BME280;8275;48.206;16.340;2023-02-28T05:54:10;100306.69;;;5.75;37.32
16331;BME280;8275;48.206;16.340;2023-02-28T05:56:40;100302.25;;;5.74;37.24
16331;BME280;8275;48.206;16.340;2023-02-28T05:59:11;100309.78;;;5.72;37.16
16331;BME280;8275;48.206;16.340;2023-02-28T06:01:41;100313.97;;;5.75;37.53
16331;BME280;8275;48.206;16.340;2023-02-28T06:04:17;100309.19;;;5.77;37.45
16331;BME280;8275;48.206;16.340;2023-02-28T06:06:59;100308.97;;;5.78;38.13
16331;BME280;8275;48.206;16.340;2023-02-28T06:09:28;100309.44;;;5.82;38.09
16331;BME280;8275;48.206;16.340;2023-02-28T06:11:58;100302.56;;;5.86;37.99
16331;BME280;8275;48.206;16.340;2023-02-28T06:14:27;100309.09;;;5.91;37.89
16331;BME280;8275;48.206;16.340;2023-02-28T06:16:55;100306.41;;;5.98;37.58
16331;BME280;8275;48.206;16.340;2023-02-28T06:19:25;100305.41;;;6.05;38.30
16331;BME280;8275;48.206;16.340;2023-02-28T06:21:54;100315.47;;;6.11;37.49
16331;BME280;8275;48.206;16.340;2023-02-28T06:24:26;100324.72;;;6.17;37.75
16331;BME280;8275;48.206;16.340;2023-02-28T06:26:56;100315.28;;;6.19;37.34
16331;BME280;8275;48.206;16.340;2023-02-28T06:29:25;100316.13;;;6.20;37.91
16331;BME280;8275;48.206;16.340;2023-02-28T06:31:54;100319.69;;;6.20;38.06
16331;BME280;8275;48.206;16.340;2023-02-28T06:34:22;100323.91;;;6.23;38.05
16331;BME280;8275;48.206;16.340;2023-02-28T06:36:52;100321.81;;;6.25;37.70
16331;BME280;8275;48.206;16.340;2023-02-28T06:39:20;100332.09;;;6.29;38.10
16331;BME280;8275;48.206;16.340;2023-02-28T06:41:50;100335.88;;;6.35;37.39
16331;BME280;8275;48.206;16.340;2023-02-28T06:44:23;100332.56;;;6.40;37.70
16331;BME280;8275;48.206;16.340;2023-02-28T06:46:52;100338.88;;;6.47;37.66
16331;BME280;8275;48.206;16.340;2023-02-28T06:49:20;100331.13;;;6.50;38.16
16331;BME280;8275;48.206;16.340;2023-02-28T06:51:49;100339.50;;;6.55;38.14
16331;BME280;8275;48.206;16.340;2023-02-28T06:54:17;100341.41;;;6.61;38.22
16331;BME280;8275;48.206;16.340;2023-02-28T06:56:46;100335.16;;;6.67;37.66
16331;BME280;8275;48.206;16.340;2023-02-28T06:59:16;100344.81;;;6.70;37.89
16331;BME280;8275;48.206;16.340;2023-02-28T07:01:44;100342.50;;;6.73;38.42
16331;BME280;8275;48.206;16.340;2023-02-28T07:04:13;100342.31;;;6.81;38.28
16331;BME280;8275;48.206;16.340;2023-02-28T07:06:41;100335.19;;;6.87;37.77
16331;BME280;8275;48.206;16.340;2023-02-28T07:09:10;100333.72;;;6.91;37.70
16331;BME280;8275;48.206;16.340;2023-02-28T07:11:39;100332.69;;;6.98;37.70
16331;BME280;8275;48.206;16.340;2023-02-28T07:14:07;100337.13;;;7.06;37.45
16331;BME280;8275;48.206;16.340;2023-02-28T07:16:37;100340.06;;;7.18;37.54
16331;BME280;8275;48.206;16.340;2023-02-28T07:19:06;100332.28;;;7.28;37.73
16331;BME280;8275;48.206;16.340;2023-02-28T07:21:34;100332.50;;;7.39;37.83
16331;BME280;8275;48.206;16.340;2023-02-28T07:24:03;100329.16;;;7.50;37.73
16331;BME280;8275;48.206;16.340;2023-02-28T07:26:32;100328.53;;;7.61;37.56
16331;BME280;8275;48.206;16.340;2023-02-28T07:29:01;100343.81;;;7.75;37.18
16331;BME280;8275;48.206;16.340;2023-02-28T07:31:30;100338.34;;;7.82;37.39
16331;BME280;8275;48.206;16.340;2023-02-28T07:34:00;100336.84;;;7.93;37.46
16331;BME280;8275;48.206;16.340;2023-02-28T07:36:29;100338.53;;;8.00;37.46
16331;BME280;8275;48.206;16.340;2023-02-28T07:38:59;100342.91;;;8.08;37.40
16331;BME280;8275;48.206;16.340;2023-02-28T07:41:27;100353.81;;;8.14;37.19
16331;BME280;8275;48.206;16.340;2023-02-28T07:43:57;100346.22;;;8.23;37.15
16331;BME280;8275;48.206;16.340;2023-02-28T07:46:26;100348.53;;;8.32;37.16
16331;BME280;8275;48.206;16.340;2023-02-28T07:48:57;100345.75;;;8.45;36.89
16331;BME280;8275;48.206;16.340;2023-02-28T07:51:28;100354.31;;;8.56;36.85
16331;BME280;8275;48.206;16.340;2023-02-28T07:53:57;100348.22;;;8.60;36.82
16331;BME280;8275;48.206;16.340;2023-02-28T07:56:26;100359.31;;;8.65;36.71
16331;BME280;8275;48.206;16.340;2023-02-28T07:58:55;100357.41;;;8.72;36.68
16331;BME280;8275;48.206;16.340;2023-02-28T08:01:23;100356.13;;;8.75;36.56
16331;BME280;8275;48.206;16.340;2023-02-28T08:03:52;100357.97;;;8.81;36.54
16331;BME280;8275;48.206;16.340;2023-02-28T08:06:23;100359.00;;;8.86;36.42
16331;BME280;8275;48.206;16.340;2023-02-28T08:08:54;100360.00;;;8.92;36.31
16331;BME280;8275;48.206;16.340;2023-02-28T08:11:24;100358.31;;;8.97;36.43
16331;BME280;8275;48.206;16.340;2023-02-28T08:13:52;100358.25;;;9.04;36.56
16331;BME280;8275;48.206;16.340;2023-02-28T08:16:22;100356.50;;;9.16;36.39
16331;BME280;8275;48.206;16.340;2023-02-28T08:18:51;100347.31;;;9.35;36.21
16331;BME280;8275;48.206;16.340;2023-02-28T08:21:21;100348.81;;;9.56;36.33
16331;BME280;8275;48.206;16.340;2023-02-28T08:23:50;100351.81;;;9.72;36.01
16331;BME280;8275;48.206;16.340;2023-02-28T08:26:20;100348.50;;;9.88;35.65
16331;BME280;8275;48.206;16.340;2023-02-28T08:28:49;100359.13;;;10.03;35.72
16331;BME280;8275;48.206;16.340;2023-02-28T08:31:18;100357.16;;;10.10;35.81
16331;BME280;8275;48.206;16.340;2023-02-28T08:33:47;100356.19;;;10.23;35.39
16331;BME280;8275;48.206;16.340;2023-02-28T08:36:18;100350.56;;;10.36;35.68
16331;BME280;8275;48.206;16.340;2023-02-28T08:38:47;100349.72;;;10.53;34.83
16331;BME280;8275;48.206;16.340;2023-02-28T08:41:16;100350.22;;;10.62;34.98
16331;BME280;8275;48.206;16.340;2023-02-28T08:43:46;100353.97;;;10.68;35.07
16331;BME280;8275;48.206;16.340;2023-02-28T08:46:14;100354.13;;;10.73;35.14
16331;BME280;8275;48.206;16.340;2023-02-28T08:48:43;100354.22;;;10.78;35.00
16331;BME280;8275;48.206;16.340;2023-02-28T08:51:14;100355.47;;;10.82;34.71
16331;BME280;8275;48.206;16.340;2023-02-28T08:53:45;100363.00;;;10.86;34.97
16331;BME280;8275;48.206;16.340;2023-02-28T08:56:16;100356.97;;;10.96;34.52
16331;BME280;8275;48.206;16.340;2023-02-28T08:58:48;100363.25;;;10.96;34.46
16331;BME280;8275;48.206;16.340;2023-02-28T09:01:19;100363.75;;;10.93;34.21
16331;BME280;8275;48.206;16.340;2023-02-28T09:03:49;100358.97;;;10.89;34.03
16331;BME280;8275;48.206;16.340;2023-02-28T09:06:20;100366.78;;;10.85;34.24
16331;BME280;8275;48.206;16.340;2023-02-28T09:08:50;100357.72;;;10.85;34.18
16331;BME280;8275;48.206;16.340;2023-02-28T09:11:18;100359.78;;;10.89;33.75
16331;BME280;8275;48.206;16.340;2023-02-28T09:13:48;100355.63;;;10.98;33.34
16331;BME280;8275;48.206;16.340;2023-02-28T09:16:18;100350.47;;;11.20;32.77
16331;BME280;8275;48.206;16.340;2023-02-28T09:18:46;100360.50;;;11.26;33.38
16331;BME280;8275;48.206;16.340;2023-02-28T09:21:16;100354.69;;;11.34;33.27
16331;BME280;8275;48.206;16.340;2023-02-28T09:23:47;100358.75;;;11.43;33.21
16331;BME280;8275;48.206;16.340;2023-02-28T09:26:19;100348.75;;;11.49;32.91
16331;BME280;8275;48.206;16.340;2023-02-28T09:28:51;100354.72;;;11.57;33.29
16331;BME280;8275;48.206;16.340;2023-02-28T09:31:22;100353.69;;;11.70;33.24
16331;BME280;8275;48.206;16.340;2023-02-28T09:33:55;100354.28;;;11.83;32.85
16331;BME280;8275;48.206;16.340;2023-02-28T09:36:25;100348.81;;;11.95;33.20
16331;BME280;8275;48.206;16.340;2023-02-28T09:39:10;100350.97;;;12.05;32.88
16331;BME280;8275;48.206;16.340;2023-02-28T09:41:42;100358.72;;;12.19;31.84
16331;BME280;8275;48.206;16.340;2023-02-28T09:44:26;100359.44;;;12.15;32.30
16331;BME280;8275;48.206;16.340;2023-02-28T09:47:00;100353.34;;;12.13;32.46
16331;BME280;8275;48.206;16.340;2023-02-28T09:49:38;100366.59;;;12.16;32.44
16331;BME280;8275;48.206;16.340;2023-02-28T09:52:12;100360.16;;;12.22;32.44
16331;BME280;8275;48.206;16.340;2023-02-28T09:54:42;100364.09;;;12.26;32.68
16331;BME280;8275;48.206;16.340;2023-02-28T09:57:19;100364.66;;;12.28;32.72
16331;BME280;8275;48.206;16.340;2023-02-28T10:00:01;100363.72;;;12.34;32.60
16331;BME280;8275;48.206;16.340;2023-02-28T10:02:58;100366.53;;;12.50;32.61
16331;BME280;8275;48.206;16.340;2023-02-28T10:05:34;100361.28;;;12.60;32.28
16331;BME280;8275;48.206;16.340;2023-02-28T10:08:13;100363.69;;;12.57;32.24
16331;BME280;8275;48.206;16.340;2023-02-28T10:10:44;100362.38;;;12.48;32.24
16331;BME280;8275;48.206;16.340;2023-02-28T10:13:22;100361.56;;;12.36;32.22
16331;BME280;8275;48.206;16.340;2023-02-28T10:15:58;100363.50;;;12.24;32.25
16331;BME280;8275;48.206;16.340;2023-02-28T10:18:39;100363.84;;;12.16;32.34
16331;BME280;8275;48.206;16.340;2023-02-28T10:21:19;100364.81;;;12.10;32.31
16331;BME280;8275;48.206;16.340;2023-02-28T10:23:56;100368.75;;;12.02;32.38
16331;BME280;8275;48.206;16.340;2023-02-28T10:26:29;100363.16;;;11.97;32.39
16331;BME280;8275;48.206;16.340;2023-02-28T10:28:59;100354.09;;;11.96;32.37
16331;BME280;8275;48.206;16.340;2023-02-28T10:31:29;100361.72;;;11.94;32.32
16331;BME280;8275;48.206;16.340;2023-02-28T10:33:58;100355.38;;;11.94;32.50
16331;BME280;8275;48.206;16.340;2023-02-28T10:36:26;100350.97;;;11.93;32.68
16331;BME280;8275;48.206;16.340;2023-02-28T10:38:56;100355.97;;;11.96;32.33
16331;BME280;8275;48.206;16.340;2023-02-28T10:41:29;100356.69;;;12.03;32.27
16331;BME280;8275;48.206;16.340;2023-02-28T10:44:19;100344.16;;;12.07;32.42
16331;BME280;8275;48.206;16.340;2023-02-28T10:46:51;100340.56;;;12.07;31.89
16331;BME280;8275;48.206;16.340;2023-02-28T10:49:22;100332.56;;;12.05;31.90
16331;BME280;8275;48.206;16.340;2023-02-28T10:51:55;100339.25;;;12.09;32.54
16331;BME280;8275;48.206;16.340;2023-02-28T10:54:30;100328.81;;;12.34;32.31
16331;BME280;8275;48.206;16.340;2023-02-28T10:57:09;100331.69;;;12.79;32.42
16331;BME280;8275;48.206;16.340;2023-02-28T10:59:42;100331.34;;;13.32;32.17
16331;BME280;8275;48.206;16.340;2023-02-28T11:02:34;100320.59;;;13.80;31.64
16331;BME280;8275;48.206;16.340;2023-02-28T11:05:25;100320.94;;;14.22;31.56
16331;BME280;8275;48.206;16.340;2023-02-28T11:07:55;100306.84;;;14.62;31.11
16331;BME280;8275;48.206;16.340;2023-02-28T11:10:29;100309.16;;;14.92;30.58
16331;BME280;8275;48.206;16.340;2023-02-28T11:12:59;100300.91;;;15.23;30.66
16331;BME280;8275;48.206;16.340;2023-02-28T11:15:32;100298.75;;;15.57;30.42
16331;BME280;8275;48.206;16.340;2023-02-28T11:18:19;100288.59;;;16.04;30.33
16331;BME280;8275;48.206;16.340;2023-02-28T11:20:51;100282.44;;;16.44;29.44
16331;BME280;8275;48.206;16.340;2023-02-28T11:23:22;100278.75;;;16.80;29.35
16331;BME280;8275;48.206;16.340;2023-02-28T11:25:58;100273.00;;;17.17;29.03
16331;BME280;8275;48.206;16.340;2023-02-28T11:28:30;100271.94;;;17.53;28.41
16331;BME280;8275;48.206;16.340;2023-02-28T11:31:14;100274.09;;;17.97;28.39
16331;BME280;8275;48.206;16.340;2023-02-28T11:33:47;100260.06;;;18.42;27.86
16331;BME280;8275;48.206;16.340;2023-02-28T11:36:21;100262.66;;;18.87;27.48
16331;BME280;8275;48.206;16.340;2023-02-28T11:38:54;100256.63;;;19.19;26.76
16331;BME280;8275;48.206;16.340;2023-02-28T11:41:43;100250.69;;;19.36;26.47
16331;BME280;8275;48.206;16.340;2023-02-28T11:44:31;100247.31;;;19.39;26.16
16331;BME280;8275;48.206;16.340;2023-02-28T11:47:10;100240.22;;;19.56;26.02
16331;BME280;8275;48.206;16.340;2023-02-28T11:49:52;100243.13;;;19.75;25.66
16331;BME280;8275;48.206;16.340;2023-02-28T11:52:35;100249.56;;;19.94;25.45
16331;BME280;8275;48.206;16.340;2023-02-28T11:55:16;100241.22;;;20.23;24.99
16331;BME280;8275;48.206;16.340;2023-02-28T11:58:12;100243.19;;;20.22;24.58
16331;BME280;8275;48.206;16.340;2023-02-28T12:01:01;100241.97;;;20.28;24.39
16331;BME280;8275;48.206;16.340;2023-02-28T12:03:43;100236.09;;;20.54;24.11
16331;BME280;8275;48.206;16.340;2023-02-28T12:06:26;100228.75;;;20.81;23.79
16331;BME280;8275;48.206;16.340;2023-02-28T12:09:23;100231.34;;;21.15;23.52
16331;BME280;8275;48.206;16.340;2023-02-28T12:12:03;100232.41;;;21.51;23.53
16331;BME280;8275;48.206;16.340;2023-02-28T12:14:57;100218.06;;;21.90;23.05
16331;BME280;8275;48.206;16.340;2023-02-28T12:17:52;100226.25;;;22.41;22.83
16331;BME280;8275;48.206;16.340;2023-02-28T12:20:33;100212.78;;;22.70;22.10
16331;BME280;8275;48.206;16.340;2023-02-28T12:23:24;100208.28;;;22.96;21.60
16331;BME280;8275;48.206;16.340;2023-02-28T12:26:11;100203.47;;;23.11;21.59
16331;BME280;8275;48.206;16.340;2023-02-28T12:28:47;100209.16;;;22.83;20.92
16331;BME280;8275;48.206;16.340;2023-02-28T12:31:20;100199.47;;;22.67;21.31
16331;BME280;8275;48.206;16.340;2023-02-28T12:33:55;100200.41;;;22.63;20.84
16331;BME280;8275;48.206;16.340;2023-02-28T12:36:27;100196.44;;;22.77;21.10
16331;BME280;8275;48.206;16.340;2023-02-28T12:39:02;100191.50;;;22.96;21.10
16331;BME280;8275;48.206;16.340;2023-02-28T12:41:40;100190.91;;;22.99;20.54
16331;BME280;8275;48.206;16.340;2023-02-28T12:44:13;100190.94;;;23.08;20.85
16331;BME280;8275;48.206;16.340;2023-02-28T12:46:49;100185.56;;;23.34;20.32
16331;BME280;8275;48.206;16.340;2023-02-28T12:49:24;100186.59;;;23.38;20.18
16331;BME280;8275;48.206;16.340;2023-02-28T12:51:54;100190.19;;;23.16;19.74
16331;BME280;8275;48.206;16.340;2023-02-28T12:54:28;100185.25;;;23.13;19.88
16331;BME280;8275;48.206;16.340;2023-02-28T12:57:05;100185.78;;;23.37;19.70
16331;BME280;8275;48.206;16.340;2023-02-28T12:59:40;100179.97;;;23.34;19.55
16331;BME280;8275;48.206;16.340;2023-02-28T13:02:41;100183.13;;;22.96;19.45
16331;BME280;8275;48.206;16.340;2023-02-28T13:09:05;100185.13;;;22.82;20.23
16331;BME280;8275;48.206;16.340;2023-02-28T13:11:44;100174.00;;;23.04;19.65
16331;BME280;8275;48.206;16.340;2023-02-28T13:14:36;100184.00;;;22.83;19.43
16331;BME280;8275;48.206;16.340;2023-02-28T13:17:11;100177.63;;;22.56;19.12
16331;BME280;8275;48.206;16.340;2023-02-28T13:19:45;100178.06;;;22.63;19.20
16331;BME280;8275;48.206;16.340;2023-02-28T13:22:20;100168.53;;;22.99;19.23
16331;BME280;8275;48.206;16.340;2023-02-28T13:25:52;100150.31;;;23.77;19.32
16331;BME280;8275;48.206;16.340;2023-02-28T13:29:28;100155.44;;;24.14;18.79
16331;BME280;8275;48.206;16.340;2023-02-28T13:32:33;100157.94;;;24.33;18.68
16331;BME280;8275;48.206;16.340;2023-02-28T13:38:25;100156.25;;;24.88;18.09
16331;BME280;8275;48.206;16.340;2023-02-28T13:41:40;100156.22;;;25.05;18.11
16331;BME280;8275;48.206;16.340;2023-02-28T13:44:11;100157.53;;;25.34;17.96
16331;BME280;8275;48.206;16.340;2023-02-28T13:47:27;100155.31;;;25.65;17.43